OCN134 EDDF-HKMO
Flight info
| Callsign | OCN134 |
|---|---|
| Flight time | N/A |
| Altitude | 37000 |
| Route | CINDY6F CINDY Z74 LAMPU DCT NOMBO Y161 MAH DCT VAVOR DCT RADIZ DCT NEMEK DCT GLOMY DCT PETAK DCT DIMIS UL604 SALUN N705 BOPIX N710 TAKRI P751 LXR M999 DEDLU/N0464F390 M999 JDW G650 RASKA/N0471F380 G650 KONET M308 RANSO/N0464F400 M308 GETOL/N0463F390 T129 ALEMU/N0462F400 UN301 IBNOK IBNOK3A |
| Aircraft | A332/H-SDE2E3FGHIJ3J4J5LM1OP2RWXYZ/LB1D1 |
Departure
| Time | N/A |
|---|---|
| Airport | Frankfurt Main Airport (EDDF) |
Arrival
| Time | 2026-05-07 08:49 |
|---|---|
| Airport | Moi International Airport (HKMO) |
| Time | Latitude | Longitude | Altitude | Speed | Heading |
|---|---|---|---|---|---|
| 2026-05-07 02:55 | 34.89346 | 23.89272 | 37107 ft | 541 kts | 155° |
| 2026-05-07 02:55 | 34.86003 | 23.91380 | 37107 ft | 540 kts | 155° |
| 2026-05-07 02:56 | 34.79326 | 23.95586 | 37108 ft | 540 kts | 155° |
| 2026-05-07 02:56 | 34.72643 | 23.99789 | 37107 ft | 542 kts | 155° |
| 2026-05-07 02:57 | 34.65941 | 24.03997 | 37108 ft | 542 kts | 155° |
| 2026-05-07 02:57 | 34.59243 | 24.08192 | 37110 ft | 542 kts | 154° |
| 2026-05-07 02:58 | 34.52572 | 24.12368 | 37108 ft | 537 kts | 154° |
| 2026-05-07 02:58 | 34.45931 | 24.16516 | 37106 ft | 538 kts | 154° |
| 2026-05-07 02:59 | 34.39258 | 24.20674 | 37107 ft | 540 kts | 154° |
| 2026-05-07 02:59 | 34.32566 | 24.24834 | 37107 ft | 540 kts | 154° |
| 2026-05-07 03:00 | 34.25874 | 24.28991 | 37112 ft | 541 kts | 154° |
| 2026-05-07 03:00 | 34.19175 | 24.33146 | 37110 ft | 543 kts | 154° |
| 2026-05-07 03:01 | 34.12431 | 24.37320 | 37106 ft | 546 kts | 154° |
| 2026-05-07 03:01 | 34.05688 | 24.41484 | 37111 ft | 541 kts | 154° |
| 2026-05-07 03:02 | 33.99251 | 24.46064 | 37112 ft | 537 kts | 141° |
| 2026-05-07 03:02 | 33.93536 | 24.51842 | 37106 ft | 537 kts | 137° |
| 2026-05-07 03:03 | 33.87958 | 24.57855 | 37111 ft | 539 kts | 136° |
| 2026-05-07 03:03 | 33.82421 | 24.63866 | 37109 ft | 539 kts | 137° |
| 2026-05-07 03:04 | 33.76832 | 24.69886 | 37112 ft | 540 kts | 137° |
| 2026-05-07 03:04 | 33.71226 | 24.75886 | 37109 ft | 540 kts | 137° |
| 2026-05-07 03:05 | 33.65611 | 24.81879 | 37115 ft | 540 kts | 137° |
| 2026-05-07 03:05 | 33.59993 | 24.87867 | 37117 ft | 541 kts | 137° |
| 2026-05-07 03:06 | 33.54365 | 24.93851 | 37114 ft | 541 kts | 137° |
| 2026-05-07 03:06 | 33.48728 | 24.99836 | 37114 ft | 541 kts | 137° |
| 2026-05-07 03:07 | 33.43112 | 25.05790 | 37112 ft | 535 kts | 137° |
| 2026-05-07 03:07 | 33.37558 | 25.11668 | 37113 ft | 531 kts | 137° |
| 2026-05-07 03:08 | 33.32014 | 25.17522 | 37115 ft | 532 kts | 137° |
| 2026-05-07 03:08 | 33.26461 | 25.23376 | 37115 ft | 532 kts | 137° |
| 2026-05-07 03:09 | 33.20904 | 25.29224 | 37114 ft | 532 kts | 137° |
| 2026-05-07 03:09 | 33.15346 | 25.35062 | 37120 ft | 531 kts | 138° |
| 2026-05-07 03:10 | 33.09859 | 25.40815 | 37116 ft | 521 kts | 138° |
| 2026-05-07 03:10 | 33.04427 | 25.46504 | 37116 ft | 519 kts | 138° |
| 2026-05-07 03:11 | 32.98990 | 25.52188 | 37113 ft | 522 kts | 138° |
| 2026-05-07 03:11 | 32.93512 | 25.57901 | 37115 ft | 525 kts | 138° |
| 2026-05-07 03:12 | 32.88019 | 25.63623 | 37113 ft | 525 kts | 138° |
| 2026-05-07 03:12 | 32.82578 | 25.69282 | 37118 ft | 519 kts | 139° |
| 2026-05-07 03:13 | 32.77166 | 25.74898 | 37118 ft | 515 kts | 139° |
| 2026-05-07 03:13 | 32.71728 | 25.80532 | 37120 ft | 516 kts | 139° |
| 2026-05-07 03:14 | 32.66357 | 25.86091 | 37117 ft | 516 kts | 139° |
| 2026-05-07 03:15 | 32.58235 | 25.94478 | 37121 ft | 516 kts | 139° |
| 2026-05-07 03:15 | 32.52828 | 26.00043 | 37119 ft | 512 kts | 139° |
| 2026-05-07 03:16 | 32.47468 | 26.05558 | 37120 ft | 509 kts | 139° |
| 2026-05-07 03:16 | 32.42113 | 26.11057 | 37117 ft | 510 kts | 139° |
| 2026-05-07 03:17 | 32.36752 | 26.16554 | 37117 ft | 510 kts | 139° |
| 2026-05-07 03:17 | 32.31377 | 26.22056 | 37117 ft | 511 kts | 139° |
| 2026-05-07 03:18 | 32.25998 | 26.27553 | 37123 ft | 511 kts | 139° |
| 2026-05-07 03:18 | 32.20650 | 26.33012 | 37121 ft | 506 kts | 139° |
| 2026-05-07 03:19 | 32.15321 | 26.38437 | 37119 ft | 505 kts | 139° |
| 2026-05-07 03:19 | 32.09992 | 26.43856 | 37123 ft | 506 kts | 139° |
| 2026-05-07 03:20 | 32.04659 | 26.49271 | 37123 ft | 506 kts | 139° |
| 2026-05-07 03:20 | 31.99313 | 26.54689 | 37131 ft | 507 kts | 139° |
| 2026-05-07 03:21 | 31.93969 | 26.60094 | 37121 ft | 505 kts | 140° |
| 2026-05-07 03:21 | 31.88685 | 26.65434 | 37124 ft | 503 kts | 140° |
| 2026-05-07 03:22 | 31.83377 | 26.70790 | 37125 ft | 503 kts | 140° |
| 2026-05-07 03:22 | 31.78063 | 26.76143 | 37129 ft | 503 kts | 140° |
| 2026-05-07 03:23 | 31.72747 | 26.81490 | 37132 ft | 504 kts | 140° |
| 2026-05-07 03:23 | 31.67420 | 26.86838 | 37130 ft | 504 kts | 140° |
| 2026-05-07 03:24 | 31.62105 | 26.92169 | 37134 ft | 501 kts | 140° |
| 2026-05-07 03:24 | 31.56807 | 26.97473 | 37134 ft | 500 kts | 140° |
| 2026-05-07 03:25 | 31.51514 | 27.02763 | 37135 ft | 500 kts | 140° |
| 2026-05-07 03:25 | 31.46213 | 27.08052 | 37137 ft | 500 kts | 140° |
| 2026-05-07 03:26 | 31.40912 | 27.13336 | 37142 ft | 501 kts | 140° |
| 2026-05-07 03:26 | 31.35600 | 27.18620 | 37140 ft | 501 kts | 140° |
| 2026-05-07 03:27 | 31.29907 | 27.23223 | 37164 ft | 496 kts | 154° |
| 2026-05-07 03:27 | 31.23732 | 27.26799 | 37154 ft | 495 kts | 156° |
| 2026-05-07 03:28 | 31.17466 | 27.30176 | 37153 ft | 496 kts | 157° |
| 2026-05-07 03:28 | 31.11190 | 27.33527 | 37149 ft | 496 kts | 157° |
| 2026-05-07 03:29 | 31.04923 | 27.36897 | 37146 ft | 496 kts | 157° |
| 2026-05-07 03:29 | 30.98653 | 27.40285 | 37146 ft | 497 kts | 157° |
| 2026-05-07 03:30 | 30.92564 | 27.44085 | 37144 ft | 498 kts | 145° |
| 2026-05-07 03:30 | 30.87013 | 27.48940 | 37146 ft | 499 kts | 143° |
| 2026-05-07 03:31 | 30.81597 | 27.53971 | 37142 ft | 498 kts | 142° |
| 2026-05-07 03:31 | 30.76203 | 27.59019 | 37143 ft | 498 kts | 142° |
| 2026-05-07 03:32 | 30.70793 | 27.64045 | 37143 ft | 498 kts | 142° |
| 2026-05-07 03:32 | 30.65408 | 27.69021 | 37140 ft | 498 kts | 142° |
| 2026-05-07 03:33 | 30.59983 | 27.74020 | 37140 ft | 498 kts | 142° |
| 2026-05-07 03:33 | 30.54555 | 27.79013 | 37140 ft | 498 kts | 142° |
| 2026-05-07 03:34 | 30.49089 | 27.84037 | 37133 ft | 498 kts | 142° |
| 2026-05-07 03:34 | 30.43687 | 27.88995 | 37134 ft | 499 kts | 143° |
| 2026-05-07 03:35 | 30.38246 | 27.93983 | 37136 ft | 499 kts | 143° |
| 2026-05-07 03:35 | 30.32800 | 27.98964 | 37134 ft | 499 kts | 143° |
| 2026-05-07 03:36 | 30.27348 | 28.03943 | 37135 ft | 499 kts | 143° |
| 2026-05-07 03:36 | 30.21901 | 28.08916 | 37134 ft | 499 kts | 143° |
| 2026-05-07 03:37 | 30.16465 | 28.13874 | 37132 ft | 497 kts | 143° |
| 2026-05-07 03:37 | 30.11028 | 28.18820 | 37132 ft | 497 kts | 143° |
| 2026-05-07 03:38 | 30.06511 | 28.22923 | 37130 ft | 497 kts | 143° |
| 2026-05-07 03:38 | 30.01069 | 28.27865 | 37128 ft | 497 kts | 143° |
| 2026-05-07 03:39 | 29.95630 | 28.32789 | 37126 ft | 497 kts | 143° |
| 2026-05-07 03:39 | 29.90187 | 28.37713 | 37128 ft | 497 kts | 143° |
| 2026-05-07 03:40 | 29.85182 | 28.43182 | 37125 ft | 498 kts | 131° |
| 2026-05-07 03:40 | 29.80831 | 28.49397 | 37124 ft | 499 kts | 128° |
| 2026-05-07 03:41 | 29.76611 | 28.55739 | 37123 ft | 499 kts | 127° |
| 2026-05-07 03:41 | 29.72400 | 28.62086 | 37122 ft | 499 kts | 128° |
| 2026-05-07 03:42 | 29.68169 | 28.68410 | 37122 ft | 499 kts | 128° |
| 2026-05-07 03:42 | 29.63930 | 28.74715 | 37121 ft | 498 kts | 128° |
| 2026-05-07 03:43 | 29.59694 | 28.81008 | 37119 ft | 498 kts | 128° |
| 2026-05-07 03:43 | 29.55453 | 28.87291 | 37119 ft | 498 kts | 128° |
| 2026-05-07 03:44 | 29.51208 | 28.93575 | 37115 ft | 498 kts | 128° |
| 2026-05-07 03:44 | 29.46961 | 28.99853 | 37116 ft | 499 kts | 129° |
| 2026-05-07 03:45 | 29.42641 | 29.06081 | 37112 ft | 498 kts | 134° |
| 2026-05-07 03:45 | 29.37470 | 29.11300 | 37113 ft | 495 kts | 143° |
| 2026-05-07 03:46 | 29.32011 | 29.16114 | 37117 ft | 495 kts | 145° |
| 2026-05-07 03:46 | 29.26492 | 29.20853 | 37116 ft | 495 kts | 145° |
| 2026-05-07 03:47 | 29.20983 | 29.25589 | 37120 ft | 495 kts | 145° |
| 2026-05-07 03:47 | 29.15487 | 29.30336 | 37102 ft | 495 kts | 145° |
| 2026-05-07 03:48 | 29.09976 | 29.35060 | 37116 ft | 495 kts | 146° |
| 2026-05-07 03:48 | 29.04410 | 29.39699 | 37119 ft | 495 kts | 146° |
| 2026-05-07 03:49 | 28.98834 | 29.44315 | 37122 ft | 495 kts | 146° |
| 2026-05-07 03:49 | 28.93301 | 29.48899 | 37120 ft | 495 kts | 146° |
| 2026-05-07 03:50 | 28.87730 | 29.53516 | 37119 ft | 495 kts | 146° |
| 2026-05-07 03:50 | 28.82156 | 29.58132 | 37117 ft | 495 kts | 146° |
| 2026-05-07 03:51 | 28.76582 | 29.62742 | 37114 ft | 495 kts | 146° |
| 2026-05-07 03:51 | 28.71000 | 29.67352 | 37116 ft | 495 kts | 146° |
| 2026-05-07 03:52 | 28.65421 | 29.71957 | 37120 ft | 495 kts | 146° |
| 2026-05-07 03:52 | 28.59841 | 29.76555 | 37118 ft | 495 kts | 146° |
| 2026-05-07 03:53 | 28.54257 | 29.81148 | 37114 ft | 495 kts | 146° |
| 2026-05-07 03:53 | 28.48669 | 29.85740 | 37116 ft | 496 kts | 147° |
| 2026-05-07 03:54 | 28.43076 | 29.90328 | 37121 ft | 496 kts | 147° |
| 2026-05-07 03:54 | 28.37480 | 29.94913 | 37116 ft | 496 kts | 147° |
| 2026-05-07 03:55 | 28.31889 | 29.99490 | 37116 ft | 495 kts | 147° |
| 2026-05-07 03:55 | 28.26295 | 30.04061 | 37116 ft | 496 kts | 147° |
| 2026-05-07 03:56 | 28.20691 | 30.08633 | 37096 ft | 496 kts | 147° |
| 2026-05-07 03:56 | 28.15085 | 30.13202 | 37120 ft | 497 kts | 147° |
| 2026-05-07 03:57 | 28.09480 | 30.17764 | 37112 ft | 496 kts | 147° |
| 2026-05-07 03:57 | 28.03881 | 30.22315 | 37104 ft | 495 kts | 147° |
| 2026-05-07 03:58 | 27.98318 | 30.26833 | 37122 ft | 495 kts | 147° |
| 2026-05-07 03:58 | 27.92717 | 30.31375 | 37104 ft | 495 kts | 147° |
| 2026-05-07 03:59 | 27.87116 | 30.35910 | 37112 ft | 496 kts | 147° |
| 2026-05-07 03:59 | 27.81500 | 30.40451 | 37101 ft | 496 kts | 147° |
| 2026-05-07 04:00 | 27.75897 | 30.44977 | 37112 ft | 494 kts | 147° |
| 2026-05-07 04:00 | 27.70310 | 30.49482 | 37120 ft | 494 kts | 147° |
| 2026-05-07 04:01 | 27.64718 | 30.53985 | 37115 ft | 494 kts | 147° |
| 2026-05-07 04:01 | 27.59129 | 30.58484 | 37112 ft | 493 kts | 147° |
| 2026-05-07 04:02 | 27.53543 | 30.62975 | 37108 ft | 493 kts | 148° |
| 2026-05-07 04:02 | 27.47952 | 30.67462 | 37115 ft | 493 kts | 148° |
| 2026-05-07 04:03 | 27.42361 | 30.71940 | 37113 ft | 493 kts | 148° |
| 2026-05-07 04:03 | 27.36769 | 30.76417 | 37114 ft | 493 kts | 148° |
| 2026-05-07 04:04 | 27.31174 | 30.80892 | 37112 ft | 493 kts | 148° |
| 2026-05-07 04:04 | 27.25582 | 30.85356 | 37114 ft | 493 kts | 148° |
| 2026-05-07 04:05 | 27.19986 | 30.89817 | 37113 ft | 493 kts | 148° |
| 2026-05-07 04:05 | 27.14388 | 30.94277 | 37103 ft | 493 kts | 148° |
| 2026-05-07 04:06 | 27.08794 | 30.98727 | 37101 ft | 492 kts | 148° |
| 2026-05-07 04:06 | 27.03404 | 31.03348 | 37103 ft | 494 kts | 139° |
| 2026-05-07 04:07 | 26.98802 | 31.09101 | 37104 ft | 497 kts | 133° |
| 2026-05-07 04:07 | 26.94427 | 31.15106 | 37108 ft | 497 kts | 131° |
| 2026-05-07 04:08 | 26.90092 | 31.21147 | 37103 ft | 498 kts | 131° |
| 2026-05-07 04:08 | 26.85738 | 31.27174 | 37094 ft | 497 kts | 133° |
| 2026-05-07 04:09 | 26.81380 | 31.33164 | 37082 ft | 496 kts | 133° |
| 2026-05-07 04:09 | 26.77019 | 31.39140 | 37082 ft | 496 kts | 133° |
| 2026-05-07 04:10 | 26.72656 | 31.45108 | 37091 ft | 495 kts | 133° |
| 2026-05-07 04:10 | 26.68292 | 31.51075 | 37072 ft | 496 kts | 133° |
| 2026-05-07 04:11 | 26.63931 | 31.57037 | 37069 ft | 495 kts | 134° |
| 2026-05-07 04:11 | 26.59570 | 31.62981 | 37069 ft | 494 kts | 134° |
| 2026-05-07 04:12 | 26.55209 | 31.68915 | 37061 ft | 494 kts | 134° |
| 2026-05-07 04:12 | 26.50850 | 31.74843 | 37028 ft | 494 kts | 134° |
| 2026-05-07 04:13 | 26.46482 | 31.80777 | 37035 ft | 495 kts | 134° |
| 2026-05-07 04:13 | 26.42106 | 31.86714 | 37042 ft | 495 kts | 135° |
| 2026-05-07 04:14 | 26.37729 | 31.92643 | 37042 ft | 495 kts | 135° |
| 2026-05-07 04:14 | 26.33346 | 31.98573 | 37028 ft | 495 kts | 135° |
| 2026-05-07 04:15 | 26.28964 | 32.04494 | 37030 ft | 495 kts | 135° |
| 2026-05-07 04:15 | 26.24580 | 32.10409 | 37023 ft | 495 kts | 135° |
| 2026-05-07 04:16 | 26.20193 | 32.16322 | 37019 ft | 495 kts | 135° |
| 2026-05-07 04:16 | 26.15801 | 32.22231 | 37004 ft | 495 kts | 135° |
| 2026-05-07 04:17 | 26.11407 | 32.28136 | 36992 ft | 495 kts | 135° |
| 2026-05-07 04:17 | 26.06997 | 32.34053 | 37001 ft | 498 kts | 135° |
| 2026-05-07 04:18 | 26.02567 | 32.39991 | 36999 ft | 499 kts | 136° |
| 2026-05-07 04:18 | 25.98169 | 32.45880 | 36988 ft | 498 kts | 136° |
| 2026-05-07 04:19 | 25.93742 | 32.51799 | 36979 ft | 498 kts | 136° |
| 2026-05-07 04:19 | 25.89310 | 32.57716 | 36976 ft | 498 kts | 136° |
| 2026-05-07 04:20 | 25.84879 | 32.63627 | 36959 ft | 498 kts | 136° |
| 2026-05-07 04:20 | 25.80452 | 32.69526 | 36967 ft | 496 kts | 136° |
| 2026-05-07 04:21 | 25.73995 | 32.78531 | 36966 ft | 501 kts | 131° |
| 2026-05-07 04:21 | 25.70086 | 32.84936 | 36958 ft | 502 kts | 130° |
| 2026-05-07 04:22 | 25.66237 | 32.91407 | 36959 ft | 502 kts | 130° |
| 2026-05-07 04:22 | 25.62407 | 32.97855 | 36968 ft | 500 kts | 130° |
| 2026-05-07 04:23 | 25.58565 | 33.04284 | 36964 ft | 500 kts | 131° |
| 2026-05-07 04:23 | 25.54723 | 33.10695 | 36966 ft | 499 kts | 130° |
| 2026-05-07 04:24 | 25.51527 | 33.16018 | 36949 ft | 500 kts | 131° |
| 2026-05-07 04:24 | 25.47683 | 33.22418 | 36966 ft | 499 kts | 131° |
| 2026-05-07 04:25 | 25.43846 | 33.28801 | 36966 ft | 498 kts | 131° |
| 2026-05-07 04:25 | 25.40008 | 33.35173 | 36965 ft | 498 kts | 131° |
| 2026-05-07 04:26 | 25.36166 | 33.41544 | 36968 ft | 498 kts | 131° |
| 2026-05-07 04:26 | 25.32320 | 33.47912 | 36972 ft | 498 kts | 131° |
| 2026-05-07 04:27 | 25.28477 | 33.54263 | 36969 ft | 498 kts | 131° |
| 2026-05-07 04:27 | 25.24627 | 33.60625 | 36968 ft | 498 kts | 131° |
| 2026-05-07 04:28 | 25.20799 | 33.66942 | 36968 ft | 499 kts | 131° |
| 2026-05-07 04:28 | 25.16946 | 33.73296 | 36970 ft | 497 kts | 132° |
| 2026-05-07 04:29 | 25.13103 | 33.79621 | 36973 ft | 496 kts | 132° |
| 2026-05-07 04:29 | 25.09258 | 33.85940 | 36972 ft | 496 kts | 132° |
| 2026-05-07 04:30 | 25.05408 | 33.92254 | 36974 ft | 496 kts | 132° |
| 2026-05-07 04:30 | 25.01559 | 33.98565 | 36969 ft | 496 kts | 132° |
| 2026-05-07 04:31 | 24.97710 | 34.04863 | 36971 ft | 494 kts | 132° |
| 2026-05-07 04:31 | 24.93864 | 34.11149 | 36975 ft | 495 kts | 132° |
| 2026-05-07 04:32 | 24.90016 | 34.17429 | 36975 ft | 495 kts | 133° |
| 2026-05-07 04:32 | 24.86166 | 34.23706 | 36979 ft | 494 kts | 133° |
| 2026-05-07 04:33 | 24.82317 | 34.29974 | 36958 ft | 494 kts | 133° |
| 2026-05-07 04:33 | 24.78471 | 34.36230 | 36979 ft | 494 kts | 133° |
| 2026-05-07 04:34 | 24.74620 | 34.42485 | 36989 ft | 493 kts | 133° |
| 2026-05-07 04:34 | 24.70768 | 34.48728 | 36966 ft | 493 kts | 133° |
| 2026-05-07 04:35 | 24.66923 | 34.54957 | 36987 ft | 491 kts | 133° |
| 2026-05-07 04:35 | 24.63090 | 34.61160 | 36985 ft | 491 kts | 133° |
| 2026-05-07 04:36 | 24.59251 | 34.67363 | 36987 ft | 491 kts | 133° |
| 2026-05-07 04:36 | 24.55412 | 34.73558 | 36958 ft | 490 kts | 133° |
| 2026-05-07 04:37 | 24.51580 | 34.79738 | 36984 ft | 489 kts | 133° |
| 2026-05-07 04:37 | 24.47774 | 34.85863 | 36985 ft | 489 kts | 133° |
| 2026-05-07 04:38 | 24.43940 | 34.92022 | 36992 ft | 489 kts | 133° |
| 2026-05-07 04:38 | 24.40095 | 34.98185 | 36984 ft | 489 kts | 133° |
| 2026-05-07 04:39 | 24.36258 | 35.04345 | 36970 ft | 489 kts | 133° |
| 2026-05-07 04:39 | 24.32418 | 35.10500 | 36976 ft | 489 kts | 133° |
| 2026-05-07 04:40 | 24.28574 | 35.16648 | 36973 ft | 489 kts | 133° |
| 2026-05-07 04:40 | 24.24732 | 35.22787 | 36975 ft | 488 kts | 133° |
| 2026-05-07 04:41 | 24.20885 | 35.28923 | 36968 ft | 489 kts | 134° |
| 2026-05-07 04:41 | 24.17025 | 35.35071 | 36962 ft | 491 kts | 134° |
| 2026-05-07 04:42 | 24.13161 | 35.41222 | 36961 ft | 490 kts | 134° |
| 2026-05-07 04:42 | 24.09295 | 35.47371 | 36959 ft | 490 kts | 133° |
| 2026-05-07 04:43 | 24.05432 | 35.53506 | 36958 ft | 490 kts | 134° |
| 2026-05-07 04:43 | 24.01553 | 35.59651 | 36947 ft | 491 kts | 134° |
| 2026-05-07 04:44 | 23.97677 | 35.65790 | 36951 ft | 491 kts | 134° |
| 2026-05-07 04:44 | 23.93820 | 35.71890 | 36949 ft | 491 kts | 134° |
| 2026-05-07 04:45 | 23.89933 | 35.78027 | 36944 ft | 492 kts | 134° |
| 2026-05-07 04:45 | 23.86035 | 35.84168 | 36950 ft | 492 kts | 134° |
| 2026-05-07 04:46 | 23.82127 | 35.90317 | 36944 ft | 492 kts | 134° |
| 2026-05-07 04:46 | 23.78220 | 35.96461 | 36946 ft | 492 kts | 134° |
| 2026-05-07 04:47 | 23.74313 | 36.02597 | 36943 ft | 492 kts | 134° |
| 2026-05-07 04:47 | 23.70404 | 36.08727 | 36940 ft | 492 kts | 134° |
| 2026-05-07 04:48 | 23.66492 | 36.14856 | 36940 ft | 492 kts | 134° |
| 2026-05-07 04:48 | 23.62584 | 36.20972 | 36939 ft | 492 kts | 134° |
| 2026-05-07 04:49 | 23.58669 | 36.27090 | 36928 ft | 492 kts | 134° |
| 2026-05-07 04:49 | 23.54746 | 36.33212 | 36939 ft | 493 kts | 134° |
| 2026-05-07 04:50 | 23.50818 | 36.39339 | 36939 ft | 491 kts | 134° |
| 2026-05-07 04:50 | 23.46942 | 36.45386 | 36925 ft | 484 kts | 134° |
| 2026-05-07 04:51 | 23.43090 | 36.51376 | 36927 ft | 482 kts | 134° |
| 2026-05-07 04:51 | 23.39233 | 36.57360 | 36933 ft | 483 kts | 134° |
| 2026-05-07 04:52 | 23.35379 | 36.63341 | 36934 ft | 483 kts | 134° |
| 2026-05-07 04:52 | 23.31521 | 36.69323 | 36931 ft | 482 kts | 134° |
| 2026-05-07 04:53 | 23.27662 | 36.75295 | 36910 ft | 482 kts | 134° |
| 2026-05-07 04:53 | 23.23800 | 36.81263 | 36927 ft | 482 kts | 134° |
| 2026-05-07 04:54 | 23.19941 | 36.87222 | 36930 ft | 482 kts | 134° |
| 2026-05-07 04:54 | 23.16082 | 36.93177 | 36931 ft | 482 kts | 134° |
| 2026-05-07 04:55 | 23.12222 | 36.99127 | 36922 ft | 482 kts | 134° |
| 2026-05-07 04:55 | 23.08358 | 37.05074 | 36917 ft | 482 kts | 135° |
| 2026-05-07 04:56 | 23.04482 | 37.11029 | 36924 ft | 482 kts | 134° |
| 2026-05-07 04:56 | 23.00635 | 37.16933 | 36919 ft | 482 kts | 135° |
| 2026-05-07 04:57 | 22.96749 | 37.22867 | 36919 ft | 482 kts | 135° |
| 2026-05-07 04:57 | 22.92861 | 37.28790 | 36913 ft | 481 kts | 135° |
| 2026-05-07 04:58 | 22.88977 | 37.34709 | 36921 ft | 482 kts | 135° |
| 2026-05-07 04:58 | 22.85093 | 37.40623 | 36913 ft | 481 kts | 135° |
| 2026-05-07 04:59 | 22.81208 | 37.46528 | 36916 ft | 481 kts | 135° |
| 2026-05-07 04:59 | 22.77323 | 37.52426 | 36912 ft | 480 kts | 135° |
| 2026-05-07 05:00 | 22.73439 | 37.58315 | 36910 ft | 480 kts | 135° |
| 2026-05-07 05:00 | 22.69559 | 37.64205 | 36914 ft | 480 kts | 135° |
| 2026-05-07 05:01 | 22.65692 | 37.70104 | 36911 ft | 481 kts | 135° |
| 2026-05-07 05:01 | 22.61827 | 37.76004 | 36907 ft | 480 kts | 135° |
| 2026-05-07 05:02 | 22.57959 | 37.81902 | 36908 ft | 480 kts | 135° |
| 2026-05-07 05:02 | 22.54092 | 37.87790 | 36908 ft | 480 kts | 135° |
| 2026-05-07 05:03 | 22.50219 | 37.93673 | 36908 ft | 480 kts | 135° |
| 2026-05-07 05:03 | 22.46347 | 37.99546 | 36905 ft | 480 kts | 135° |
| 2026-05-07 05:04 | 22.42464 | 38.05430 | 36896 ft | 481 kts | 135° |
| 2026-05-07 05:04 | 22.38579 | 38.11316 | 36894 ft | 481 kts | 135° |
| 2026-05-07 05:05 | 22.34696 | 38.17195 | 36890 ft | 481 kts | 135° |
| 2026-05-07 05:05 | 22.30805 | 38.23075 | 36893 ft | 482 kts | 135° |
| 2026-05-07 05:06 | 22.26919 | 38.28934 | 36883 ft | 484 kts | 135° |
| 2026-05-07 05:06 | 22.23005 | 38.34835 | 36889 ft | 484 kts | 135° |
| 2026-05-07 05:07 | 22.19088 | 38.40737 | 36879 ft | 483 kts | 135° |
| 2026-05-07 05:07 | 22.15173 | 38.46631 | 36867 ft | 484 kts | 135° |
| 2026-05-07 05:08 | 22.11252 | 38.52527 | 36877 ft | 484 kts | 135° |
| 2026-05-07 05:08 | 22.07325 | 38.58420 | 36867 ft | 484 kts | 135° |
| 2026-05-07 05:09 | 22.03392 | 38.64316 | 36870 ft | 484 kts | 135° |
| 2026-05-07 05:09 | 21.99459 | 38.70204 | 36867 ft | 486 kts | 135° |
| 2026-05-07 05:10 | 21.95504 | 38.76118 | 36864 ft | 487 kts | 135° |
| 2026-05-07 05:10 | 21.91549 | 38.82030 | 36865 ft | 487 kts | 135° |
| 2026-05-07 05:11 | 21.87589 | 38.87940 | 36860 ft | 486 kts | 135° |
| 2026-05-07 05:11 | 21.83630 | 38.93846 | 36857 ft | 487 kts | 135° |
| 2026-05-07 05:12 | 21.79662 | 38.99761 | 36856 ft | 487 kts | 135° |
| 2026-05-07 05:12 | 21.76337 | 39.04635 | 36856 ft | 482 kts | 139° |
| 2026-05-07 05:13 | 21.74061 | 39.07213 | 36856 ft | 469 kts | 148° |
| 2026-05-07 05:13 | 21.71502 | 39.09295 | 36838 ft | 454 kts | 158° |
| 2026-05-07 05:13 | 21.68733 | 39.10809 | 36855 ft | 441 kts | 168° |
| 2026-05-07 05:13 | 21.65841 | 39.11741 | 36853 ft | 428 kts | 178° |
| 2026-05-07 05:14 | 21.62926 | 39.12099 | 36855 ft | 417 kts | 186° |
| 2026-05-07 05:14 | 21.60032 | 39.12145 | 36856 ft | 415 kts | 189° |
| 2026-05-07 05:14 | 21.54269 | 39.11984 | 36858 ft | 414 kts | 190° |
| 2026-05-07 05:15 | 21.48508 | 39.11763 | 36857 ft | 414 kts | 190° |
| 2026-05-07 05:15 | 21.42742 | 39.11578 | 36864 ft | 415 kts | 189° |
| 2026-05-07 05:16 | 21.36958 | 39.11424 | 36861 ft | 416 kts | 189° |
| 2026-05-07 05:16 | 21.31169 | 39.11281 | 36866 ft | 416 kts | 189° |
| 2026-05-07 05:17 | 21.25380 | 39.11138 | 36876 ft | 416 kts | 189° |
| 2026-05-07 05:17 | 21.19588 | 39.10991 | 36856 ft | 416 kts | 189° |
| 2026-05-07 05:18 | 21.13783 | 39.10841 | 36882 ft | 418 kts | 189° |
| 2026-05-07 05:18 | 21.07963 | 39.10694 | 36882 ft | 418 kts | 189° |
| 2026-05-07 05:19 | 21.02139 | 39.10545 | 36885 ft | 419 kts | 189° |
| 2026-05-07 05:19 | 20.96316 | 39.10399 | 36887 ft | 419 kts | 189° |
| 2026-05-07 05:20 | 20.90524 | 39.10253 | 36881 ft | 420 kts | 189° |
| 2026-05-07 05:20 | 20.84672 | 39.10102 | 36882 ft | 421 kts | 189° |
| 2026-05-07 05:21 | 20.75875 | 39.09880 | 36880 ft | 421 kts | 189° |
| 2026-05-07 05:22 | 20.70015 | 39.09735 | 36878 ft | 421 kts | 189° |
| 2026-05-07 05:22 | 20.64153 | 39.09588 | 36882 ft | 422 kts | 188° |
| 2026-05-07 05:23 | 20.58273 | 39.09441 | 36879 ft | 423 kts | 188° |
| 2026-05-07 05:23 | 20.52389 | 39.09293 | 36880 ft | 423 kts | 188° |
| 2026-05-07 05:24 | 20.46511 | 39.09143 | 36882 ft | 423 kts | 188° |
| 2026-05-07 05:24 | 20.40631 | 39.08994 | 36879 ft | 423 kts | 188° |
| 2026-05-07 05:25 | 20.34748 | 39.08845 | 36882 ft | 423 kts | 188° |
| 2026-05-07 05:25 | 20.28862 | 39.08699 | 36881 ft | 423 kts | 188° |
| 2026-05-07 05:26 | 20.22970 | 39.08552 | 36881 ft | 423 kts | 188° |
| 2026-05-07 05:26 | 20.17084 | 39.08406 | 36860 ft | 423 kts | 187° |
| 2026-05-07 05:27 | 20.11230 | 39.08259 | 36882 ft | 424 kts | 188° |
| 2026-05-07 05:27 | 20.05331 | 39.08110 | 36881 ft | 424 kts | 188° |
| 2026-05-07 05:28 | 19.99430 | 39.07962 | 36882 ft | 424 kts | 188° |
| 2026-05-07 05:28 | 19.93531 | 39.07815 | 36879 ft | 424 kts | 188° |
| 2026-05-07 05:29 | 19.87625 | 39.07671 | 36879 ft | 425 kts | 187° |
| 2026-05-07 05:29 | 19.81709 | 39.07522 | 36881 ft | 425 kts | 187° |
| 2026-05-07 05:30 | 19.75789 | 39.07373 | 36884 ft | 426 kts | 187° |
| 2026-05-07 05:30 | 19.69868 | 39.07225 | 36884 ft | 426 kts | 187° |
| 2026-05-07 05:31 | 19.63947 | 39.07078 | 36885 ft | 425 kts | 187° |
| 2026-05-07 05:31 | 19.58025 | 39.06934 | 36884 ft | 426 kts | 187° |
| 2026-05-07 05:32 | 19.52104 | 39.06786 | 36884 ft | 425 kts | 187° |
| 2026-05-07 05:32 | 19.46187 | 39.06638 | 36883 ft | 425 kts | 187° |
| 2026-05-07 05:33 | 19.40273 | 39.06490 | 36883 ft | 425 kts | 187° |
| 2026-05-07 05:33 | 19.34351 | 39.06342 | 36886 ft | 426 kts | 187° |
| 2026-05-07 05:34 | 19.28417 | 39.06193 | 36885 ft | 426 kts | 187° |
| 2026-05-07 05:34 | 19.22481 | 39.06048 | 36887 ft | 427 kts | 187° |
| 2026-05-07 05:35 | 19.16542 | 39.05901 | 36887 ft | 427 kts | 187° |
| 2026-05-07 05:35 | 19.10606 | 39.05722 | 36887 ft | 426 kts | 188° |
| 2026-05-07 05:36 | 19.04686 | 39.05406 | 36883 ft | 426 kts | 189° |
| 2026-05-07 05:36 | 18.98764 | 39.05055 | 36880 ft | 426 kts | 189° |
| 2026-05-07 05:37 | 18.92844 | 39.04710 | 36882 ft | 426 kts | 188° |
| 2026-05-07 05:37 | 18.86927 | 39.04374 | 36888 ft | 426 kts | 188° |
| 2026-05-07 05:38 | 18.81001 | 39.04045 | 36891 ft | 427 kts | 188° |
| 2026-05-07 05:38 | 18.75059 | 39.03716 | 36885 ft | 428 kts | 188° |
| 2026-05-07 05:39 | 18.69155 | 39.03390 | 36894 ft | 427 kts | 188° |
| 2026-05-07 05:39 | 18.63219 | 39.03061 | 36894 ft | 427 kts | 188° |
| 2026-05-07 05:40 | 18.57275 | 39.02731 | 36893 ft | 428 kts | 188° |
| 2026-05-07 05:40 | 18.51327 | 39.02403 | 36897 ft | 428 kts | 188° |
| 2026-05-07 05:41 | 18.45379 | 39.02072 | 36887 ft | 428 kts | 188° |
| 2026-05-07 05:41 | 18.39428 | 39.01744 | 36898 ft | 429 kts | 188° |
| 2026-05-07 05:42 | 18.33479 | 39.01417 | 36872 ft | 429 kts | 188° |
| 2026-05-07 05:42 | 18.27513 | 39.01086 | 36893 ft | 430 kts | 187° |
| 2026-05-07 05:43 | 18.21535 | 39.00757 | 36894 ft | 430 kts | 187° |
| 2026-05-07 05:43 | 18.15564 | 39.00443 | 36888 ft | 430 kts | 187° |
| 2026-05-07 05:44 | 18.09581 | 39.00213 | 36892 ft | 430 kts | 187° |
| 2026-05-07 05:44 | 18.03591 | 39.00010 | 36895 ft | 431 kts | 186° |
| 2026-05-07 05:45 | 17.97585 | 38.99802 | 36893 ft | 432 kts | 186° |
| 2026-05-07 05:45 | 17.91582 | 38.99588 | 36895 ft | 432 kts | 186° |
| 2026-05-07 05:46 | 17.85570 | 38.99372 | 36897 ft | 432 kts | 186° |
| 2026-05-07 05:46 | 17.79604 | 38.99156 | 36887 ft | 432 kts | 186° |
| 2026-05-07 05:47 | 17.73585 | 38.98939 | 36895 ft | 434 kts | 186° |
| 2026-05-07 05:47 | 17.67552 | 38.98723 | 36894 ft | 434 kts | 186° |
| 2026-05-07 05:48 | 17.61520 | 38.98507 | 36895 ft | 434 kts | 186° |
| 2026-05-07 05:48 | 17.55488 | 38.98293 | 36898 ft | 434 kts | 186° |
| 2026-05-07 05:49 | 17.49453 | 38.98077 | 36897 ft | 435 kts | 186° |
| 2026-05-07 05:49 | 17.43403 | 38.97857 | 36900 ft | 435 kts | 186° |
| 2026-05-07 05:50 | 17.37351 | 38.97637 | 36903 ft | 435 kts | 186° |
| 2026-05-07 05:50 | 17.31301 | 38.97416 | 36900 ft | 435 kts | 186° |
| 2026-05-07 05:51 | 17.25242 | 38.97194 | 36891 ft | 435 kts | 186° |
| 2026-05-07 05:51 | 17.19180 | 38.96975 | 36896 ft | 436 kts | 186° |
| 2026-05-07 05:52 | 17.13110 | 38.96754 | 36893 ft | 437 kts | 186° |
| 2026-05-07 05:52 | 17.07036 | 38.96530 | 36893 ft | 436 kts | 186° |
| 2026-05-07 05:53 | 17.00969 | 38.96308 | 36911 ft | 436 kts | 186° |
| 2026-05-07 05:53 | 16.94897 | 38.96089 | 36904 ft | 436 kts | 186° |
| 2026-05-07 05:54 | 16.88830 | 38.95866 | 36896 ft | 436 kts | 186° |
| 2026-05-07 05:54 | 16.82765 | 38.95644 | 36909 ft | 436 kts | 186° |
| 2026-05-07 05:55 | 16.76692 | 38.95425 | 36897 ft | 436 kts | 186° |
| 2026-05-07 05:55 | 16.70626 | 38.95203 | 36898 ft | 437 kts | 185° |
| 2026-05-07 05:56 | 16.64592 | 38.94984 | 36906 ft | 437 kts | 185° |
| 2026-05-07 05:56 | 16.58477 | 38.94765 | 36907 ft | 437 kts | 185° |
| 2026-05-07 05:57 | 16.52400 | 38.94546 | 36904 ft | 437 kts | 185° |
| 2026-05-07 05:57 | 16.46330 | 38.94327 | 36900 ft | 437 kts | 185° |
| 2026-05-07 05:58 | 16.40294 | 38.94107 | 36911 ft | 437 kts | 185° |
| 2026-05-07 05:58 | 16.34207 | 38.93886 | 36911 ft | 437 kts | 185° |
| 2026-05-07 05:59 | 16.28123 | 38.93665 | 36926 ft | 437 kts | 185° |
| 2026-05-07 05:59 | 16.23025 | 38.93483 | 36925 ft | 438 kts | 185° |
| 2026-05-07 06:00 | 16.15948 | 38.93226 | 36931 ft | 438 kts | 185° |
| 2026-05-07 06:00 | 16.09847 | 38.93004 | 36936 ft | 439 kts | 185° |
| 2026-05-07 06:01 | 16.04735 | 38.92820 | 36941 ft | 439 kts | 185° |
| 2026-05-07 06:01 | 15.98632 | 38.92601 | 36940 ft | 439 kts | 185° |
| 2026-05-07 06:02 | 15.92528 | 38.92383 | 36949 ft | 439 kts | 185° |
| 2026-05-07 06:02 | 15.86424 | 38.92164 | 36957 ft | 439 kts | 185° |
| 2026-05-07 06:03 | 15.80308 | 38.91941 | 36957 ft | 440 kts | 185° |
| 2026-05-07 06:03 | 15.74235 | 38.91722 | 36969 ft | 440 kts | 185° |
| 2026-05-07 06:04 | 15.68120 | 38.91503 | 36969 ft | 440 kts | 185° |
| 2026-05-07 06:04 | 15.61989 | 38.91283 | 36979 ft | 441 kts | 185° |
| 2026-05-07 06:05 | 15.55862 | 38.91065 | 36976 ft | 440 kts | 185° |
| 2026-05-07 06:05 | 15.49731 | 38.90844 | 36992 ft | 441 kts | 185° |
| 2026-05-07 06:06 | 15.43609 | 38.90623 | 36989 ft | 440 kts | 185° |
| 2026-05-07 06:06 | 15.37494 | 38.90404 | 36999 ft | 440 kts | 185° |
| 2026-05-07 06:07 | 15.31371 | 38.90186 | 37007 ft | 440 kts | 185° |
| 2026-05-07 06:07 | 15.25245 | 38.90035 | 37003 ft | 441 kts | 183° |
| 2026-05-07 06:08 | 15.19110 | 38.90029 | 37009 ft | 441 kts | 182° |
| 2026-05-07 06:08 | 15.12968 | 38.90050 | 37012 ft | 441 kts | 182° |
| 2026-05-07 06:09 | 15.06831 | 38.90056 | 37008 ft | 441 kts | 182° |
| 2026-05-07 06:09 | 15.00688 | 38.90053 | 37007 ft | 441 kts | 182° |
| 2026-05-07 06:10 | 14.94550 | 38.90043 | 37001 ft | 441 kts | 182° |
| 2026-05-07 06:10 | 14.88410 | 38.90037 | 37000 ft | 440 kts | 182° |
| 2026-05-07 06:11 | 14.82287 | 38.90033 | 36992 ft | 440 kts | 182° |
| 2026-05-07 06:11 | 14.76159 | 38.90025 | 36990 ft | 440 kts | 182° |
| 2026-05-07 06:12 | 14.70028 | 38.90019 | 36991 ft | 440 kts | 182° |
| 2026-05-07 06:12 | 14.63896 | 38.90013 | 36988 ft | 441 kts | 182° |
| 2026-05-07 06:13 | 14.57759 | 38.90006 | 36987 ft | 441 kts | 182° |
| 2026-05-07 06:13 | 14.51628 | 38.90000 | 36990 ft | 441 kts | 182° |
| 2026-05-07 06:14 | 14.45495 | 38.89966 | 36993 ft | 441 kts | 182° |
| 2026-05-07 06:14 | 14.39353 | 38.89894 | 36995 ft | 442 kts | 182° |
| 2026-05-07 06:15 | 14.33204 | 38.89819 | 36996 ft | 441 kts | 182° |
| 2026-05-07 06:15 | 14.27070 | 38.89749 | 37000 ft | 441 kts | 182° |
| 2026-05-07 06:16 | 14.20938 | 38.89682 | 37003 ft | 441 kts | 182° |
| 2026-05-07 06:16 | 14.14798 | 38.89616 | 37009 ft | 441 kts | 182° |
| 2026-05-07 06:17 | 14.08705 | 38.89549 | 37012 ft | 441 kts | 182° |
| 2026-05-07 06:17 | 14.02572 | 38.89476 | 37012 ft | 441 kts | 182° |
| 2026-05-07 06:18 | 13.96439 | 38.89371 | 37011 ft | 441 kts | 183° |
| 2026-05-07 06:18 | 13.90300 | 38.89255 | 37014 ft | 442 kts | 183° |
| 2026-05-07 06:19 | 13.84152 | 38.89141 | 37006 ft | 442 kts | 183° |
| 2026-05-07 06:19 | 13.78012 | 38.89029 | 37007 ft | 441 kts | 183° |
| 2026-05-07 06:20 | 13.71873 | 38.88918 | 37001 ft | 441 kts | 183° |
| 2026-05-07 06:20 | 13.65727 | 38.88808 | 36999 ft | 442 kts | 183° |
| 2026-05-07 06:21 | 13.59574 | 38.88699 | 36992 ft | 442 kts | 183° |
| 2026-05-07 06:21 | 13.53424 | 38.88588 | 36991 ft | 442 kts | 183° |
| 2026-05-07 06:22 | 13.47265 | 38.88477 | 36989 ft | 442 kts | 183° |
| 2026-05-07 06:22 | 13.38036 | 38.88310 | 36982 ft | 442 kts | 183° |
| 2026-05-07 06:23 | 13.31875 | 38.88198 | 36982 ft | 443 kts | 183° |
| 2026-05-07 06:23 | 13.25715 | 38.88086 | 36974 ft | 443 kts | 183° |
| 2026-05-07 06:24 | 13.19550 | 38.87975 | 36970 ft | 443 kts | 183° |
| 2026-05-07 06:24 | 13.13386 | 38.87866 | 36968 ft | 443 kts | 183° |
| 2026-05-07 06:25 | 13.07219 | 38.87758 | 36972 ft | 444 kts | 183° |
| 2026-05-07 06:25 | 13.01037 | 38.87646 | 36972 ft | 444 kts | 183° |
| 2026-05-07 06:26 | 12.94859 | 38.87534 | 36974 ft | 444 kts | 183° |
| 2026-05-07 06:26 | 12.88683 | 38.87398 | 36973 ft | 444 kts | 183° |
| 2026-05-07 06:27 | 12.82505 | 38.87220 | 36983 ft | 445 kts | 183° |
| 2026-05-07 06:27 | 12.76308 | 38.87040 | 36982 ft | 446 kts | 183° |
| 2026-05-07 06:28 | 12.70148 | 38.86863 | 36996 ft | 446 kts | 183° |
| 2026-05-07 06:28 | 12.63950 | 38.86687 | 37002 ft | 447 kts | 184° |
| 2026-05-07 06:29 | 12.57736 | 38.86511 | 37004 ft | 446 kts | 183° |
| 2026-05-07 06:29 | 12.51527 | 38.86339 | 37021 ft | 447 kts | 183° |
| 2026-05-07 06:30 | 12.45311 | 38.86167 | 37018 ft | 447 kts | 183° |
| 2026-05-07 06:30 | 12.39093 | 38.85996 | 37028 ft | 447 kts | 183° |
| 2026-05-07 06:31 | 12.32878 | 38.85821 | 37028 ft | 447 kts | 183° |
| 2026-05-07 06:31 | 12.26658 | 38.85648 | 37033 ft | 448 kts | 183° |
| 2026-05-07 06:32 | 12.20427 | 38.85474 | 37034 ft | 449 kts | 183° |
| 2026-05-07 06:32 | 12.14178 | 38.85304 | 37038 ft | 449 kts | 183° |
| 2026-05-07 06:33 | 12.07938 | 38.85131 | 37036 ft | 449 kts | 183° |
| 2026-05-07 06:33 | 12.01696 | 38.84957 | 37049 ft | 449 kts | 183° |
| 2026-05-07 06:34 | 11.95458 | 38.84783 | 37051 ft | 449 kts | 183° |
| 2026-05-07 06:34 | 11.89192 | 38.84610 | 37053 ft | 450 kts | 183° |
| 2026-05-07 06:35 | 11.82929 | 38.84439 | 37049 ft | 450 kts | 183° |
| 2026-05-07 06:35 | 11.76668 | 38.84265 | 37049 ft | 450 kts | 183° |
| 2026-05-07 06:36 | 11.70407 | 38.84091 | 37048 ft | 450 kts | 183° |
| 2026-05-07 06:36 | 11.64130 | 38.83920 | 37048 ft | 451 kts | 183° |
| 2026-05-07 06:37 | 11.57851 | 38.83748 | 37048 ft | 452 kts | 183° |
| 2026-05-07 06:37 | 11.51616 | 38.83573 | 37050 ft | 451 kts | 183° |
| 2026-05-07 06:38 | 11.45336 | 38.83403 | 37039 ft | 451 kts | 183° |
| 2026-05-07 06:38 | 11.39053 | 38.83230 | 37037 ft | 451 kts | 183° |
| 2026-05-07 06:39 | 11.32774 | 38.83057 | 37034 ft | 451 kts | 183° |
| 2026-05-07 06:39 | 11.26490 | 38.82885 | 37031 ft | 452 kts | 183° |
| 2026-05-07 06:40 | 11.20207 | 38.82712 | 37033 ft | 452 kts | 183° |
| 2026-05-07 06:40 | 11.13928 | 38.82539 | 37037 ft | 452 kts | 183° |
| 2026-05-07 06:41 | 11.07637 | 38.82364 | 37035 ft | 452 kts | 183° |
| 2026-05-07 06:41 | 11.01343 | 38.82191 | 37046 ft | 453 kts | 183° |
| 2026-05-07 06:42 | 10.95053 | 38.82019 | 37042 ft | 452 kts | 183° |
| 2026-05-07 06:42 | 10.88756 | 38.81847 | 37047 ft | 453 kts | 183° |
| 2026-05-07 06:43 | 10.82454 | 38.81676 | 37046 ft | 453 kts | 183° |
| 2026-05-07 06:43 | 10.76141 | 38.81506 | 37042 ft | 454 kts | 183° |
| 2026-05-07 06:44 | 10.69827 | 38.81332 | 37027 ft | 454 kts | 183° |
| 2026-05-07 06:44 | 10.63520 | 38.81156 | 37030 ft | 453 kts | 183° |
| 2026-05-07 06:45 | 10.57215 | 38.80982 | 37012 ft | 454 kts | 183° |
| 2026-05-07 06:45 | 10.50889 | 38.80809 | 37012 ft | 455 kts | 183° |
| 2026-05-07 06:46 | 10.45621 | 38.80666 | 36999 ft | 456 kts | 183° |
| 2026-05-07 06:46 | 10.38256 | 38.80464 | 36997 ft | 455 kts | 183° |
| 2026-05-07 06:47 | 10.32950 | 38.80320 | 36993 ft | 456 kts | 183° |
| 2026-05-07 06:47 | 10.26609 | 38.80147 | 36994 ft | 456 kts | 183° |
| 2026-05-07 06:48 | 10.20255 | 38.79974 | 36992 ft | 457 kts | 182° |
| 2026-05-07 06:48 | 10.13890 | 38.79799 | 36992 ft | 458 kts | 183° |
| 2026-05-07 06:49 | 10.07529 | 38.79625 | 37007 ft | 457 kts | 182° |
| 2026-05-07 06:49 | 10.01177 | 38.79452 | 37022 ft | 457 kts | 183° |
| 2026-05-07 06:50 | 9.94812 | 38.79279 | 37023 ft | 457 kts | 183° |
| 2026-05-07 06:50 | 9.88456 | 38.79105 | 37033 ft | 457 kts | 182° |
| 2026-05-07 06:51 | 9.82092 | 38.78932 | 37034 ft | 458 kts | 183° |
| 2026-05-07 06:51 | 9.75774 | 38.78761 | 37049 ft | 457 kts | 183° |
| 2026-05-07 06:52 | 9.69417 | 38.78590 | 37048 ft | 458 kts | 182° |
| 2026-05-07 06:52 | 9.63044 | 38.78416 | 37066 ft | 458 kts | 182° |
| 2026-05-07 06:53 | 9.56664 | 38.78241 | 37068 ft | 459 kts | 182° |
| 2026-05-07 06:53 | 9.50282 | 38.78067 | 37078 ft | 458 kts | 183° |
| 2026-05-07 06:54 | 9.43909 | 38.77893 | 37080 ft | 458 kts | 182° |
| 2026-05-07 06:54 | 9.37535 | 38.77720 | 37080 ft | 458 kts | 183° |
| 2026-05-07 06:55 | 9.31166 | 38.77548 | 37084 ft | 458 kts | 182° |
| 2026-05-07 06:55 | 9.24792 | 38.77375 | 37086 ft | 458 kts | 183° |
| 2026-05-07 06:56 | 9.18419 | 38.77201 | 37078 ft | 458 kts | 183° |
| 2026-05-07 06:56 | 9.12049 | 38.76978 | 37308 ft | 457 kts | 186° |
| 2026-05-07 06:57 | 9.05806 | 38.75802 | 37371 ft | 456 kts | 193° |
| 2026-05-07 06:57 | 8.99644 | 38.74293 | 37373 ft | 456 kts | 195° |
| 2026-05-07 06:58 | 8.93494 | 38.72721 | 37371 ft | 456 kts | 195° |
| 2026-05-07 06:58 | 8.87343 | 38.71158 | 37323 ft | 456 kts | 195° |
| 2026-05-07 06:59 | 8.81192 | 38.69611 | 37252 ft | 456 kts | 195° |
| 2026-05-07 06:59 | 8.75039 | 38.68070 | 37179 ft | 456 kts | 194° |
| 2026-05-07 07:00 | 8.68882 | 38.66529 | 37108 ft | 455 kts | 195° |
| 2026-05-07 07:00 | 8.62731 | 38.64991 | 37056 ft | 455 kts | 194° |
| 2026-05-07 07:01 | 8.56587 | 38.63454 | 37057 ft | 454 kts | 195° |
| 2026-05-07 07:01 | 8.50484 | 38.61926 | 37058 ft | 455 kts | 195° |
| 2026-05-07 07:02 | 8.44303 | 38.60380 | 37058 ft | 455 kts | 194° |
| 2026-05-07 07:02 | 8.38191 | 38.58851 | 37058 ft | 455 kts | 195° |
| 2026-05-07 07:03 | 8.32049 | 38.57315 | 37059 ft | 455 kts | 195° |
| 2026-05-07 07:03 | 8.25902 | 38.55781 | 37051 ft | 455 kts | 195° |
| 2026-05-07 07:04 | 8.19684 | 38.54634 | 37194 ft | 459 kts | 184° |
| 2026-05-07 07:04 | 8.13302 | 38.55392 | 37386 ft | 467 kts | 167° |
| 2026-05-07 07:05 | 8.10174 | 38.56291 | 37568 ft | 468 kts | 164° |
| 2026-05-07 07:05 | 8.07078 | 38.57313 | 37759 ft | 468 kts | 163° |
| 2026-05-07 07:05 | 8.04004 | 38.58387 | 37948 ft | 468 kts | 162° |
| 2026-05-07 07:05 | 8.00931 | 38.59476 | 38153 ft | 467 kts | 162° |
| 2026-05-07 07:06 | 7.97860 | 38.60557 | 38320 ft | 468 kts | 162° |
| 2026-05-07 07:06 | 7.94780 | 38.61627 | 38481 ft | 468 kts | 163° |
| 2026-05-07 07:06 | 7.91694 | 38.62687 | 38650 ft | 468 kts | 163° |
| 2026-05-07 07:06 | 7.88608 | 38.63735 | 38810 ft | 468 kts | 163° |
| 2026-05-07 07:07 | 7.85522 | 38.64778 | 38981 ft | 467 kts | 164° |
| 2026-05-07 07:07 | 7.82439 | 38.65818 | 39111 ft | 467 kts | 163° |
| 2026-05-07 07:07 | 7.79354 | 38.66857 | 39256 ft | 467 kts | 163° |
| 2026-05-07 07:07 | 7.76274 | 38.67894 | 39399 ft | 467 kts | 163° |
| 2026-05-07 07:08 | 7.73203 | 38.68929 | 39573 ft | 466 kts | 163° |
| 2026-05-07 07:08 | 7.70126 | 38.69966 | 39698 ft | 466 kts | 162° |
| 2026-05-07 07:08 | 7.67049 | 38.71002 | 39828 ft | 466 kts | 162° |
| 2026-05-07 07:08 | 7.63995 | 38.72032 | 39967 ft | 466 kts | 162° |
| 2026-05-07 07:09 | 7.57850 | 38.74104 | 40029 ft | 468 kts | 162° |
| 2026-05-07 07:09 | 7.54723 | 38.75158 | 41652 ft | 468 kts | 162° |
| 2026-05-07 07:09 | 7.51655 | 38.76192 | 39873 ft | 471 kts | 162° |
| 2026-05-07 07:10 | 7.45453 | 38.78282 | 40036 ft | 468 kts | 162° |
| 2026-05-07 07:10 | 7.39321 | 38.80348 | 40053 ft | 468 kts | 162° |
| 2026-05-07 07:11 | 7.33144 | 38.82428 | 40068 ft | 468 kts | 162° |
| 2026-05-07 07:11 | 7.26968 | 38.84507 | 40068 ft | 468 kts | 162° |
| 2026-05-07 07:12 | 7.20786 | 38.86587 | 40092 ft | 468 kts | 162° |
| 2026-05-07 07:12 | 7.14607 | 38.88665 | 40089 ft | 468 kts | 162° |
| 2026-05-07 07:13 | 7.08426 | 38.90744 | 40092 ft | 468 kts | 163° |
| 2026-05-07 07:13 | 7.02231 | 38.92826 | 40085 ft | 470 kts | 162° |
| 2026-05-07 07:14 | 6.96031 | 38.94910 | 40100 ft | 470 kts | 163° |
| 2026-05-07 07:14 | 6.89827 | 38.96995 | 40099 ft | 470 kts | 163° |
| 2026-05-07 07:15 | 6.83607 | 38.99084 | 40100 ft | 471 kts | 163° |
| 2026-05-07 07:15 | 6.77396 | 39.01170 | 40100 ft | 470 kts | 162° |
| 2026-05-07 07:16 | 6.71198 | 39.03252 | 40100 ft | 469 kts | 162° |
| 2026-05-07 07:16 | 6.65006 | 39.05329 | 40098 ft | 469 kts | 162° |
| 2026-05-07 07:17 | 6.58813 | 39.07407 | 40091 ft | 469 kts | 162° |
| 2026-05-07 07:17 | 6.52667 | 39.09469 | 40094 ft | 469 kts | 162° |
| 2026-05-07 07:18 | 6.46476 | 39.11545 | 40079 ft | 469 kts | 162° |
| 2026-05-07 07:18 | 6.40286 | 39.13621 | 40073 ft | 469 kts | 162° |
| 2026-05-07 07:19 | 6.34101 | 39.15695 | 40076 ft | 469 kts | 162° |
| 2026-05-07 07:19 | 6.27911 | 39.17769 | 40070 ft | 469 kts | 162° |
| 2026-05-07 07:20 | 6.21717 | 39.19844 | 40068 ft | 469 kts | 162° |
| 2026-05-07 07:20 | 6.15528 | 39.21917 | 40065 ft | 469 kts | 162° |
| 2026-05-07 07:21 | 6.09342 | 39.23989 | 40059 ft | 468 kts | 162° |
| 2026-05-07 07:21 | 6.03165 | 39.26057 | 40059 ft | 468 kts | 162° |
| 2026-05-07 07:22 | 5.96982 | 39.28127 | 40059 ft | 468 kts | 162° |
| 2026-05-07 07:22 | 5.90798 | 39.30196 | 40058 ft | 469 kts | 162° |
| 2026-05-07 07:23 | 5.84609 | 39.32267 | 40058 ft | 469 kts | 162° |
| 2026-05-07 07:23 | 5.78419 | 39.34338 | 40057 ft | 469 kts | 162° |
| 2026-05-07 07:24 | 5.72229 | 39.36409 | 40052 ft | 470 kts | 162° |
| 2026-05-07 07:24 | 5.66010 | 39.38426 | 40053 ft | 470 kts | 167° |
| 2026-05-07 07:25 | 5.56375 | 39.40282 | 40051 ft | 470 kts | 171° |
| 2026-05-07 07:26 | 5.49932 | 39.41355 | 40048 ft | 469 kts | 171° |
| 2026-05-07 07:26 | 5.43485 | 39.42422 | 40050 ft | 470 kts | 171° |
| 2026-05-07 07:27 | 5.37076 | 39.43495 | 40047 ft | 470 kts | 171° |
| 2026-05-07 07:27 | 5.30639 | 39.44579 | 40053 ft | 469 kts | 171° |
| 2026-05-07 07:28 | 5.24189 | 39.45667 | 40038 ft | 471 kts | 171° |
| 2026-05-07 07:28 | 5.17715 | 39.46758 | 40039 ft | 472 kts | 171° |
| 2026-05-07 07:29 | 5.11245 | 39.47848 | 40031 ft | 471 kts | 171° |
| 2026-05-07 07:29 | 5.04776 | 39.48938 | 40029 ft | 472 kts | 171° |
| 2026-05-07 07:30 | 4.98292 | 39.50029 | 40024 ft | 472 kts | 171° |
| 2026-05-07 07:30 | 4.91828 | 39.51117 | 40017 ft | 471 kts | 171° |
| 2026-05-07 07:31 | 4.85367 | 39.52204 | 40019 ft | 471 kts | 171° |
| 2026-05-07 07:31 | 4.78905 | 39.53292 | 40016 ft | 471 kts | 170° |
| 2026-05-07 07:32 | 4.72448 | 39.54377 | 40011 ft | 470 kts | 171° |
| 2026-05-07 07:32 | 4.65989 | 39.55463 | 40006 ft | 472 kts | 170° |
| 2026-05-07 07:33 | 4.59510 | 39.56553 | 40011 ft | 472 kts | 170° |
| 2026-05-07 07:33 | 4.53034 | 39.57641 | 40005 ft | 472 kts | 170° |
| 2026-05-07 07:34 | 4.46553 | 39.58731 | 40007 ft | 473 kts | 170° |
| 2026-05-07 07:34 | 4.41153 | 39.59638 | 40003 ft | 473 kts | 170° |
| 2026-05-07 07:35 | 4.34666 | 39.60728 | 40012 ft | 473 kts | 170° |
| 2026-05-07 07:35 | 4.28160 | 39.61821 | 40011 ft | 475 kts | 170° |
| 2026-05-07 07:36 | 4.21652 | 39.62914 | 40010 ft | 474 kts | 170° |
| 2026-05-07 07:36 | 4.15161 | 39.64004 | 40007 ft | 473 kts | 170° |
| 2026-05-07 07:37 | 4.08659 | 39.65096 | 40011 ft | 474 kts | 170° |
| 2026-05-07 07:37 | 4.02147 | 39.66189 | 40010 ft | 474 kts | 170° |
| 2026-05-07 07:38 | 3.95656 | 39.67345 | 40005 ft | 474 kts | 169° |
| 2026-05-07 07:38 | 3.89156 | 39.68584 | 40009 ft | 476 kts | 169° |
| 2026-05-07 07:39 | 3.82664 | 39.69828 | 40010 ft | 474 kts | 169° |
| 2026-05-07 07:39 | 3.76226 | 39.71052 | 40008 ft | 474 kts | 169° |
| 2026-05-07 07:40 | 3.69731 | 39.72280 | 40009 ft | 476 kts | 169° |
| 2026-05-07 07:40 | 3.63233 | 39.73508 | 40006 ft | 474 kts | 169° |
| 2026-05-07 07:41 | 3.56756 | 39.74731 | 40008 ft | 474 kts | 169° |
| 2026-05-07 07:41 | 3.50261 | 39.75958 | 39999 ft | 475 kts | 169° |
| 2026-05-07 07:42 | 3.43768 | 39.77185 | 40004 ft | 474 kts | 169° |
| 2026-05-07 07:42 | 3.37293 | 39.78408 | 40000 ft | 474 kts | 169° |
| 2026-05-07 07:43 | 3.30810 | 39.79633 | 39996 ft | 475 kts | 169° |
| 2026-05-07 07:43 | 3.24323 | 39.80858 | 40001 ft | 473 kts | 169° |
| 2026-05-07 07:44 | 3.17849 | 39.82081 | 40000 ft | 473 kts | 169° |
| 2026-05-07 07:44 | 3.11365 | 39.83305 | 39995 ft | 474 kts | 169° |
| 2026-05-07 07:45 | 3.04893 | 39.84527 | 39998 ft | 472 kts | 169° |
| 2026-05-07 07:45 | 2.98433 | 39.85746 | 39998 ft | 473 kts | 169° |
| 2026-05-07 07:46 | 2.91959 | 39.86968 | 39992 ft | 474 kts | 169° |
| 2026-05-07 07:46 | 2.85494 | 39.88188 | 39990 ft | 472 kts | 169° |
| 2026-05-07 07:47 | 2.79041 | 39.89406 | 39989 ft | 472 kts | 169° |
| 2026-05-07 07:47 | 2.72580 | 39.90625 | 39987 ft | 473 kts | 169° |
| 2026-05-07 07:48 | 2.66125 | 39.91843 | 39989 ft | 471 kts | 169° |
| 2026-05-07 07:48 | 2.59671 | 39.93061 | 39990 ft | 472 kts | 169° |
| 2026-05-07 07:49 | 2.53199 | 39.94254 | 39987 ft | 473 kts | 170° |
| 2026-05-07 07:49 | 2.46732 | 39.95404 | 39986 ft | 471 kts | 170° |
| 2026-05-07 07:50 | 2.40267 | 39.96548 | 39982 ft | 472 kts | 170° |
| 2026-05-07 07:50 | 2.33793 | 39.97699 | 39979 ft | 473 kts | 170° |
| 2026-05-07 07:51 | 2.27371 | 39.98843 | 39981 ft | 471 kts | 170° |
| 2026-05-07 07:51 | 2.20907 | 39.99996 | 39975 ft | 473 kts | 170° |
| 2026-05-07 07:52 | 2.14437 | 40.01150 | 39979 ft | 472 kts | 170° |
| 2026-05-07 07:52 | 2.07970 | 40.02302 | 39972 ft | 472 kts | 170° |
| 2026-05-07 07:53 | 2.01506 | 40.03455 | 39965 ft | 473 kts | 169° |
| 2026-05-07 07:53 | 1.95021 | 40.04610 | 39956 ft | 473 kts | 169° |
| 2026-05-07 07:54 | 1.88549 | 40.05764 | 39946 ft | 473 kts | 169° |
| 2026-05-07 07:54 | 1.82058 | 40.06921 | 39938 ft | 474 kts | 169° |
| 2026-05-07 07:55 | 1.75549 | 40.07935 | 39933 ft | 472 kts | 176° |
| 2026-05-07 07:55 | 1.68987 | 40.07749 | 39942 ft | 473 kts | 184° |
| 2026-05-07 07:56 | 1.62423 | 40.07192 | 39935 ft | 473 kts | 185° |
| 2026-05-07 07:56 | 1.55865 | 40.06565 | 39944 ft | 474 kts | 185° |
| 2026-05-07 07:57 | 1.49306 | 40.05949 | 39950 ft | 473 kts | 185° |
| 2026-05-07 07:57 | 1.42746 | 40.05350 | 39957 ft | 473 kts | 185° |
| 2026-05-07 07:58 | 1.36191 | 40.04758 | 39957 ft | 472 kts | 185° |
| 2026-05-07 07:58 | 1.29643 | 40.04168 | 39954 ft | 473 kts | 185° |
| 2026-05-07 07:59 | 1.23141 | 40.03581 | 39956 ft | 472 kts | 185° |
| 2026-05-07 07:59 | 1.16587 | 40.02989 | 39954 ft | 473 kts | 185° |
| 2026-05-07 08:00 | 1.10036 | 40.02397 | 39955 ft | 473 kts | 185° |
| 2026-05-07 08:00 | 1.03469 | 40.01804 | 39950 ft | 474 kts | 185° |
| 2026-05-07 08:01 | 0.96906 | 40.01211 | 39954 ft | 474 kts | 185° |
| 2026-05-07 08:01 | 0.90343 | 40.00623 | 39950 ft | 473 kts | 185° |
| 2026-05-07 08:02 | 0.83783 | 40.00037 | 39953 ft | 474 kts | 185° |
| 2026-05-07 08:02 | 0.77211 | 39.99450 | 39946 ft | 474 kts | 185° |
| 2026-05-07 08:03 | 0.70640 | 39.98862 | 39955 ft | 474 kts | 185° |
| 2026-05-07 08:03 | 0.64073 | 39.98275 | 39953 ft | 473 kts | 185° |
| 2026-05-07 08:04 | 0.57506 | 39.97687 | 39946 ft | 474 kts | 185° |
| 2026-05-07 08:04 | 0.50938 | 39.97100 | 39947 ft | 474 kts | 185° |
| 2026-05-07 08:05 | 0.44357 | 39.96511 | 39953 ft | 475 kts | 185° |
| 2026-05-07 08:05 | 0.37777 | 39.95923 | 39953 ft | 475 kts | 185° |
| 2026-05-07 08:06 | 0.31196 | 39.95334 | 39950 ft | 474 kts | 185° |
| 2026-05-07 08:06 | 0.24623 | 39.94747 | 39949 ft | 475 kts | 185° |
| 2026-05-07 08:07 | 0.18048 | 39.94158 | 39952 ft | 474 kts | 185° |
| 2026-05-07 08:07 | 0.11518 | 39.93574 | 39946 ft | 475 kts | 185° |
| 2026-05-07 08:08 | 0.04941 | 39.92986 | 39952 ft | 474 kts | 185° |
| 2026-05-07 08:08 | -0.01637 | 39.92397 | 39951 ft | 475 kts | 185° |
| 2026-05-07 08:09 | -0.08207 | 39.91809 | 39948 ft | 474 kts | 186° |
| 2026-05-07 08:09 | -0.14779 | 39.91221 | 39948 ft | 474 kts | 185° |
| 2026-05-07 08:10 | -0.21351 | 39.90633 | 39949 ft | 474 kts | 186° |
| 2026-05-07 08:10 | -0.27929 | 39.90044 | 39947 ft | 474 kts | 186° |
| 2026-05-07 08:11 | -0.34504 | 39.89486 | 39945 ft | 475 kts | 184° |
| 2026-05-07 08:11 | -0.41094 | 39.89045 | 39946 ft | 474 kts | 184° |
| 2026-05-07 08:12 | -0.47683 | 39.88634 | 39942 ft | 475 kts | 184° |
| 2026-05-07 08:12 | -0.54269 | 39.88214 | 39944 ft | 474 kts | 185° |
| 2026-05-07 08:13 | -0.60864 | 39.87785 | 39943 ft | 475 kts | 185° |
| 2026-05-07 08:13 | -0.67444 | 39.87354 | 39947 ft | 474 kts | 185° |
| 2026-05-07 08:14 | -0.74028 | 39.86921 | 39948 ft | 474 kts | 185° |
| 2026-05-07 08:14 | -0.80604 | 39.86489 | 39949 ft | 474 kts | 185° |
| 2026-05-07 08:15 | -0.87188 | 39.86057 | 39949 ft | 474 kts | 185° |
| 2026-05-07 08:15 | -0.93762 | 39.85627 | 39952 ft | 473 kts | 185° |
| 2026-05-07 08:16 | -1.00283 | 39.85199 | 39949 ft | 472 kts | 184° |
| 2026-05-07 08:16 | -1.06846 | 39.84769 | 39945 ft | 473 kts | 186° |
| 2026-05-07 08:17 | -1.13409 | 39.84339 | 39945 ft | 472 kts | 185° |
| 2026-05-07 08:17 | -1.19971 | 39.83908 | 39948 ft | 473 kts | 185° |
| 2026-05-07 08:18 | -1.26532 | 39.83478 | 39945 ft | 472 kts | 185° |
| 2026-05-07 08:18 | -1.33087 | 39.83048 | 39707 ft | 471 kts | 185° |
| 2026-05-07 08:18 | -1.36339 | 39.82835 | 39480 ft | 469 kts | 185° |
| 2026-05-07 08:19 | -1.39599 | 39.82622 | 39240 ft | 469 kts | 185° |
| 2026-05-07 08:19 | -1.42857 | 39.82408 | 39011 ft | 470 kts | 185° |
| 2026-05-07 08:19 | -1.46119 | 39.82194 | 38781 ft | 470 kts | 185° |
| 2026-05-07 08:19 | -1.49379 | 39.81981 | 38546 ft | 469 kts | 186° |
| 2026-05-07 08:20 | -1.52637 | 39.81767 | 38285 ft | 470 kts | 185° |
| 2026-05-07 08:20 | -1.55902 | 39.81553 | 38016 ft | 470 kts | 184° |
| 2026-05-07 08:20 | -1.59162 | 39.81339 | 37752 ft | 470 kts | 186° |
| 2026-05-07 08:20 | -1.62437 | 39.81124 | 37491 ft | 472 kts | 185° |
| 2026-05-07 08:21 | -1.65720 | 39.80908 | 37231 ft | 473 kts | 185° |
| 2026-05-07 08:21 | -1.69010 | 39.80693 | 36977 ft | 474 kts | 185° |
| 2026-05-07 08:21 | -1.72296 | 39.80477 | 36728 ft | 474 kts | 184° |
| 2026-05-07 08:21 | -1.75589 | 39.80261 | 36481 ft | 476 kts | 185° |
| 2026-05-07 08:22 | -1.78895 | 39.80042 | 36237 ft | 476 kts | 185° |
| 2026-05-07 08:22 | -1.81126 | 39.79889 | 36073 ft | 475 kts | 186° |
| 2026-05-07 08:22 | -1.84427 | 39.79660 | 35833 ft | 476 kts | 185° |
| 2026-05-07 08:22 | -1.87689 | 39.79433 | 35597 ft | 477 kts | 185° |
| 2026-05-07 08:23 | -1.90999 | 39.79202 | 35275 ft | 476 kts | 185° |
| 2026-05-07 08:23 | -1.94309 | 39.78971 | 34676 ft | 477 kts | 186° |
| 2026-05-07 08:23 | -1.97629 | 39.78740 | 33990 ft | 481 kts | 185° |
| 2026-05-07 08:23 | -2.00976 | 39.78506 | 33203 ft | 484 kts | 185° |
| 2026-05-07 08:24 | -2.04341 | 39.78271 | 32470 ft | 485 kts | 184° |
| 2026-05-07 08:24 | -2.07706 | 39.78037 | 31724 ft | 486 kts | 184° |
| 2026-05-07 08:24 | -2.11081 | 39.77802 | 31150 ft | 484 kts | 184° |
| 2026-05-07 08:24 | -2.14420 | 39.77570 | 30664 ft | 479 kts | 184° |
| 2026-05-07 08:25 | -2.17730 | 39.77340 | 30152 ft | 475 kts | 183° |
| 2026-05-07 08:25 | -2.21011 | 39.77112 | 29577 ft | 471 kts | 183° |
| 2026-05-07 08:25 | -2.24266 | 39.76886 | 29042 ft | 466 kts | 183° |
| 2026-05-07 08:25 | -2.27481 | 39.76662 | 28525 ft | 461 kts | 183° |
| 2026-05-07 08:26 | -2.33822 | 39.76220 | 27465 ft | 452 kts | 183° |
| 2026-05-07 08:26 | -2.36941 | 39.76003 | 26978 ft | 448 kts | 183° |
| 2026-05-07 08:26 | -2.40040 | 39.75787 | 26476 ft | 444 kts | 183° |
| 2026-05-07 08:27 | -2.43115 | 39.75572 | 25946 ft | 441 kts | 183° |
| 2026-05-07 08:27 | -2.46167 | 39.75360 | 25424 ft | 438 kts | 183° |
| 2026-05-07 08:27 | -2.49196 | 39.75149 | 24925 ft | 435 kts | 183° |
| 2026-05-07 08:27 | -2.52209 | 39.74939 | 24425 ft | 432 kts | 183° |
| 2026-05-07 08:28 | -2.55145 | 39.74734 | 23918 ft | 430 kts | 183° |
| 2026-05-07 08:28 | -2.58176 | 39.74524 | 23382 ft | 428 kts | 183° |
| 2026-05-07 08:28 | -2.61136 | 39.74335 | 22840 ft | 423 kts | 180° |
| 2026-05-07 08:28 | -2.64062 | 39.74422 | 22263 ft | 419 kts | 175° |
| 2026-05-07 08:29 | -2.66955 | 39.74670 | 21765 ft | 414 kts | 174° |
| 2026-05-07 08:29 | -2.69806 | 39.74942 | 21278 ft | 409 kts | 173° |
| 2026-05-07 08:29 | -2.72624 | 39.75213 | 20798 ft | 404 kts | 173° |
| 2026-05-07 08:29 | -2.75407 | 39.75477 | 20325 ft | 400 kts | 173° |
| 2026-05-07 08:30 | -2.78159 | 39.75736 | 19850 ft | 395 kts | 174° |
| 2026-05-07 08:30 | -2.80887 | 39.75992 | 19381 ft | 391 kts | 174° |
| 2026-05-07 08:30 | -2.83584 | 39.76245 | 18915 ft | 388 kts | 174° |
| 2026-05-07 08:30 | -2.86255 | 39.76493 | 18460 ft | 384 kts | 174° |
| 2026-05-07 08:31 | -2.88901 | 39.76739 | 17961 ft | 380 kts | 174° |
| 2026-05-07 08:31 | -2.91521 | 39.76983 | 17491 ft | 375 kts | 174° |
| 2026-05-07 08:31 | -2.94102 | 39.77224 | 17030 ft | 371 kts | 174° |
| 2026-05-07 08:31 | -2.96649 | 39.77461 | 16570 ft | 366 kts | 174° |
| 2026-05-07 08:32 | -2.99177 | 39.77697 | 16136 ft | 362 kts | 174° |
| 2026-05-07 08:32 | -3.01671 | 39.77930 | 15705 ft | 359 kts | 174° |
| 2026-05-07 08:32 | -3.04144 | 39.78160 | 15237 ft | 355 kts | 174° |
| 2026-05-07 08:32 | -3.06592 | 39.78389 | 14803 ft | 352 kts | 174° |
| 2026-05-07 08:33 | -3.08992 | 39.78613 | 14366 ft | 350 kts | 175° |
| 2026-05-07 08:33 | -3.11408 | 39.78839 | 13943 ft | 347 kts | 175° |
| 2026-05-07 08:33 | -3.13806 | 39.79062 | 13491 ft | 345 kts | 175° |
| 2026-05-07 08:33 | -3.16182 | 39.79283 | 13037 ft | 341 kts | 175° |
| 2026-05-07 08:34 | -3.18531 | 39.79501 | 12617 ft | 337 kts | 175° |
| 2026-05-07 08:34 | -3.20848 | 39.79716 | 12209 ft | 333 kts | 175° |
| 2026-05-07 08:34 | -3.23142 | 39.79930 | 11812 ft | 329 kts | 175° |
| 2026-05-07 08:34 | -3.25420 | 39.80148 | 11398 ft | 329 kts | 175° |
| 2026-05-07 08:35 | -3.27693 | 39.80365 | 10999 ft | 327 kts | 175° |
| 2026-05-07 08:35 | -3.29944 | 39.80573 | 10636 ft | 322 kts | 175° |
| 2026-05-07 08:35 | -3.32129 | 39.80774 | 10533 ft | 308 kts | 175° |
| 2026-05-07 08:35 | -3.34200 | 39.80965 | 10430 ft | 289 kts | 175° |
| 2026-05-07 08:36 | -3.36136 | 39.81144 | 10317 ft | 273 kts | 175° |
| 2026-05-07 08:36 | -3.38002 | 39.81319 | 10183 ft | 265 kts | 175° |
| 2026-05-07 08:36 | -3.39832 | 39.81488 | 9925 ft | 264 kts | 175° |
| 2026-05-07 08:36 | -3.41661 | 39.81658 | 9586 ft | 264 kts | 175° |
| 2026-05-07 08:37 | -3.43487 | 39.81827 | 9283 ft | 264 kts | 175° |
| 2026-05-07 08:37 | -3.45307 | 39.81995 | 8998 ft | 261 kts | 174° |
| 2026-05-07 08:37 | -3.47114 | 39.82118 | 8704 ft | 259 kts | 181° |
| 2026-05-07 08:37 | -3.48900 | 39.81896 | 8355 ft | 259 kts | 191° |
| 2026-05-07 08:38 | -3.50658 | 39.81499 | 8050 ft | 258 kts | 192° |
| 2026-05-07 08:38 | -3.52399 | 39.81077 | 7762 ft | 257 kts | 192° |
| 2026-05-07 08:38 | -3.54139 | 39.80656 | 7453 ft | 257 kts | 192° |
| 2026-05-07 08:38 | -3.55874 | 39.80239 | 7166 ft | 256 kts | 192° |
| 2026-05-07 08:39 | -3.57605 | 39.79826 | 6871 ft | 257 kts | 193° |
| 2026-05-07 08:39 | -3.59361 | 39.79410 | 6574 ft | 260 kts | 192° |
| 2026-05-07 08:39 | -3.61122 | 39.78986 | 6268 ft | 261 kts | 192° |
| 2026-05-07 08:39 | -3.62883 | 39.78565 | 5964 ft | 259 kts | 192° |
| 2026-05-07 08:40 | -3.64634 | 39.78150 | 5671 ft | 258 kts | 192° |
| 2026-05-07 08:40 | -3.66380 | 39.77734 | 5355 ft | 257 kts | 194° |
| 2026-05-07 08:40 | -3.68120 | 39.77326 | 5060 ft | 257 kts | 192° |
| 2026-05-07 08:40 | -3.69861 | 39.76910 | 4746 ft | 257 kts | 192° |
| 2026-05-07 08:41 | -3.71597 | 39.76495 | 4444 ft | 256 kts | 192° |
| 2026-05-07 08:41 | -3.73321 | 39.76073 | 4146 ft | 255 kts | 194° |
| 2026-05-07 08:41 | -3.74956 | 39.75407 | 3820 ft | 254 kts | 205° |
| 2026-05-07 08:41 | -3.76505 | 39.74570 | 3508 ft | 253 kts | 206° |
| 2026-05-07 08:42 | -3.78031 | 39.73709 | 3217 ft | 250 kts | 207° |
| 2026-05-07 08:42 | -3.79497 | 39.72878 | 3033 ft | 230 kts | 206° |
| 2026-05-07 08:42 | -3.80821 | 39.72125 | 2997 ft | 210 kts | 207° |
| 2026-05-07 08:42 | -3.82044 | 39.71437 | 2999 ft | 193 kts | 207° |
| 2026-05-07 08:43 | -3.83172 | 39.70799 | 3000 ft | 179 kts | 205° |
| 2026-05-07 08:43 | -3.84228 | 39.70206 | 2985 ft | 173 kts | 207° |
| 2026-05-07 08:43 | -3.85270 | 39.69617 | 2990 ft | 171 kts | 206° |
| 2026-05-07 08:43 | -3.86305 | 39.69034 | 2995 ft | 170 kts | 205° |
| 2026-05-07 08:44 | -3.87357 | 39.68452 | 2746 ft | 174 kts | 206° |
| 2026-05-07 08:44 | -3.88407 | 39.67865 | 2667 ft | 170 kts | 206° |
| 2026-05-07 08:44 | -3.89425 | 39.67305 | 2496 ft | 166 kts | 205° |
| 2026-05-07 08:44 | -3.90426 | 39.66753 | 2289 ft | 160 kts | 207° |
| 2026-05-07 08:45 | -3.91380 | 39.66215 | 2180 ft | 153 kts | 206° |
| 2026-05-07 08:45 | -3.92296 | 39.65701 | 2142 ft | 151 kts | 206° |
| 2026-05-07 08:45 | -3.93210 | 39.65193 | 1990 ft | 149 kts | 207° |
| 2026-05-07 08:45 | -3.94105 | 39.64690 | 1782 ft | 143 kts | 206° |
| 2026-05-07 08:46 | -3.94936 | 39.64223 | 1624 ft | 133 kts | 209° |
| 2026-05-07 08:46 | -3.95734 | 39.63771 | 1431 ft | 131 kts | 205° |
| 2026-05-07 08:46 | -3.96532 | 39.63325 | 1250 ft | 130 kts | 206° |
| 2026-05-07 08:46 | -3.97324 | 39.62893 | 1110 ft | 133 kts | 208° |
| 2026-05-07 08:47 | -3.98142 | 39.62429 | 923 ft | 133 kts | 207° |
| 2026-05-07 08:47 | -3.98952 | 39.61977 | 794 ft | 136 kts | 203° |
| 2026-05-07 08:47 | -3.99759 | 39.61519 | 621 ft | 132 kts | 208° |
| 2026-05-07 08:47 | -4.00554 | 39.61072 | 418 ft | 131 kts | 208° |
| 2026-05-07 08:48 | -4.01345 | 39.60625 | 245 ft | 130 kts | 207° |
| 2026-05-07 08:48 | -4.02071 | 39.60221 | 209 ft | 98 kts | 209° |
| 2026-05-07 08:48 | -4.02575 | 39.59940 | 220 ft | 72 kts | 209° |
| 2026-05-07 08:48 | -4.02961 | 39.59723 | 217 ft | 58 kts | 209° |
| 2026-05-07 08:49 | -4.03186 | 39.59597 | 218 ft | 20 kts | 210° |
| 2026-05-07 08:49 | -4.03295 | 39.59539 | 209 ft | 9 kts | 192° |
| 2026-05-07 08:49 | -4.03326 | 39.59573 | 219 ft | 7 kts | 96° |
| 2026-05-07 08:49 | -4.03326 | 39.59628 | 214 ft | 9 kts | 90° |
| 2026-05-07 08:50 | -4.03326 | 39.59694 | 213 ft | 10 kts | 90° |
| 2026-05-07 08:50 | -4.03326 | 39.59772 | 209 ft | 12 kts | 89° |
| 2026-05-07 08:50 | -4.03325 | 39.59860 | 217 ft | 13 kts | 89° |
| 2026-05-07 08:50 | -4.03325 | 39.59951 | 209 ft | 11 kts | 90° |
| 2026-05-07 08:51 | -4.03325 | 39.60000 | 218 ft | 4 kts | 90° |
| 2026-05-07 08:51 | -4.03323 | 39.60032 | 209 ft | 5 kts | 78° |
| 2026-05-07 08:51 | -4.03301 | 39.60055 | 220 ft | 5 kts | 35° |
| 2026-05-07 08:51 | -4.03263 | 39.60077 | 218 ft | 7 kts | 29° |
| 2026-05-07 08:52 | -4.03213 | 39.60104 | 220 ft | 9 kts | 29° |
| 2026-05-07 08:52 | -4.03179 | 39.60139 | 209 ft | 6 kts | 77° |
| 2026-05-07 08:52 | -4.03192 | 39.60174 | 219 ft | 5 kts | 115° |
| 2026-05-07 08:52 | -4.03205 | 39.60198 | 209 ft | 2 kts | 118° |
| 2026-05-07 08:53 | -4.03206 | 39.60199 | 209 ft | 0 kts | 118° |